sensor_id;sensor_type;location;lat;lon;timestamp;P1;durP1;ratioP1;P2;durP2;ratioP2
10811;SDS011;5458;51.496;7.334;2023-01-01T00:00:58;9.20;;;7.05;;
10811;SDS011;5458;51.496;7.334;2023-01-01T00:03:24;10.02;;;7.07;;
10811;SDS011;5458;51.496;7.334;2023-01-01T00:05:50;12.73;;;8.88;;
10811;SDS011;5458;51.496;7.334;2023-01-01T00:08:15;13.43;;;8.65;;
10811;SDS011;5458;51.496;7.334;2023-01-01T00:10:41;12.30;;;8.40;;
10811;SDS011;5458;51.496;7.334;2023-01-01T00:13:06;13.45;;;8.55;;
10811;SDS011;5458;51.496;7.334;2023-01-01T00:15:32;12.52;;;8.07;;
10811;SDS011;5458;51.496;7.334;2023-01-01T00:17:58;11.48;;;8.73;;
10811;SDS011;5458;51.496;7.334;2023-01-01T00:20:23;12.63;;;8.30;;
10811;SDS011;5458;51.496;7.334;2023-01-01T00:22:49;16.52;;;8.90;;
10811;SDS011;5458;51.496;7.334;2023-01-01T00:25:15;16.35;;;9.30;;
10811;SDS011;5458;51.496;7.334;2023-01-01T00:27:42;11.68;;;8.48;;
10811;SDS011;5458;51.496;7.334;2023-01-01T00:30:08;13.57;;;9.20;;
10811;SDS011;5458;51.496;7.334;2023-01-01T00:32:34;13.80;;;9.15;;
10811;SDS011;5458;51.496;7.334;2023-01-01T00:35:00;13.45;;;9.43;;
10811;SDS011;5458;51.496;7.334;2023-01-01T00:37:26;15.73;;;10.20;;
10811;SDS011;5458;51.496;7.334;2023-01-01T00:39:52;13.98;;;9.38;;
10811;SDS011;5458;51.496;7.334;2023-01-01T00:42:18;12.80;;;9.95;;
10811;SDS011;5458;51.496;7.334;2023-01-01T00:44:43;15.77;;;10.30;;
10811;SDS011;5458;51.496;7.334;2023-01-01T00:47:09;16.27;;;11.10;;
10811;SDS011;5458;51.496;7.334;2023-01-01T00:49:35;12.35;;;9.43;;
10811;SDS011;5458;51.496;7.334;2023-01-01T00:52:00;14.13;;;10.32;;
10811;SDS011;5458;51.496;7.334;2023-01-01T00:54:26;16.13;;;10.88;;
10811;SDS011;5458;51.496;7.334;2023-01-01T00:56:52;16.77;;;11.70;;
10811;SDS011;5458;51.496;7.334;2023-01-01T00:59:17;15.05;;;11.27;;
10811;SDS011;5458;51.496;7.334;2023-01-01T01:01:43;15.02;;;10.85;;
10811;SDS011;5458;51.496;7.334;2023-01-01T01:04:08;13.80;;;9.50;;
10811;SDS011;5458;51.496;7.334;2023-01-01T01:06:34;18.70;;;11.13;;
10811;SDS011;5458;51.496;7.334;2023-01-01T01:09:00;14.80;;;10.45;;
10811;SDS011;5458;51.496;7.334;2023-01-01T01:11:25;17.55;;;11.18;;
10811;SDS011;5458;51.496;7.334;2023-01-01T01:13:52;12.32;;;9.80;;
10811;SDS011;5458;51.496;7.334;2023-01-01T01:16:27;15.40;;;10.93;;
10811;SDS011;5458;51.496;7.334;2023-01-01T01:18:58;17.55;;;9.93;;
10811;SDS011;5458;51.496;7.334;2023-01-01T01:21:25;14.38;;;9.15;;
10811;SDS011;5458;51.496;7.334;2023-01-01T01:23:52;13.40;;;9.70;;
10811;SDS011;5458;51.496;7.334;2023-01-01T01:26:23;13.00;;;9.27;;
10811;SDS011;5458;51.496;7.334;2023-01-01T01:28:50;10.85;;;7.28;;
10811;SDS011;5458;51.496;7.334;2023-01-01T01:31:17;12.80;;;8.35;;
10811;SDS011;5458;51.496;7.334;2023-01-01T01:33:45;10.90;;;7.15;;
10811;SDS011;5458;51.496;7.334;2023-01-01T01:36:11;10.90;;;7.25;;
10811;SDS011;5458;51.496;7.334;2023-01-01T01:38:38;9.95;;;6.93;;
10811;SDS011;5458;51.496;7.334;2023-01-01T01:41:04;10.98;;;7.68;;
10811;SDS011;5458;51.496;7.334;2023-01-01T01:46:05;7.43;;;6.50;;
10811;SDS011;5458;51.496;7.334;2023-01-01T01:48:39;7.97;;;5.20;;
10811;SDS011;5458;51.496;7.334;2023-01-01T01:51:08;8.98;;;5.00;;
10811;SDS011;5458;51.496;7.334;2023-01-01T01:53:47;5.65;;;4.90;;
10811;SDS011;5458;51.496;7.334;2023-01-01T01:56:20;7.13;;;4.35;;
10811;SDS011;5458;51.496;7.334;2023-01-01T01:58:53;8.65;;;4.47;;
10811;SDS011;5458;51.496;7.334;2023-01-01T02:01:19;9.85;;;4.18;;
10811;SDS011;5458;51.496;7.334;2023-01-01T02:03:46;5.80;;;4.15;;
10811;SDS011;5458;51.496;7.334;2023-01-01T02:06:17;7.68;;;3.97;;
10811;SDS011;5458;51.496;7.334;2023-01-01T02:08:44;7.13;;;3.58;;
10811;SDS011;5458;51.496;7.334;2023-01-01T02:11:10;4.93;;;3.67;;
10811;SDS011;5458;51.496;7.334;2023-01-01T02:13:35;7.68;;;3.20;;
10811;SDS011;5458;51.496;7.334;2023-01-01T02:22:08;4.70;;;2.50;;
10811;SDS011;5458;51.496;7.334;2023-01-01T02:25:10;5.47;;;2.45;;
10811;SDS011;5458;51.496;7.334;2023-01-01T02:30:58;5.47;;;2.55;;
10811;SDS011;5458;51.496;7.334;2023-01-01T02:33:25;4.72;;;2.50;;
10811;SDS011;5458;51.496;7.334;2023-01-01T02:35:55;5.82;;;1.95;;
10811;SDS011;5458;51.496;7.334;2023-01-01T02:38:34;3.78;;;1.92;;
10811;SDS011;5458;51.496;7.334;2023-01-01T02:41:05;3.80;;;2.13;;
10811;SDS011;5458;51.496;7.334;2023-01-01T02:43:35;2.17;;;1.98;;
10811;SDS011;5458;51.496;7.334;2023-01-01T02:46:04;3.58;;;1.90;;
10811;SDS011;5458;51.496;7.334;2023-01-01T02:51:03;2.83;;;2.05;;
10811;SDS011;5458;51.496;7.334;2023-01-01T02:53:37;1.98;;;1.77;;
10811;SDS011;5458;51.496;7.334;2023-01-01T02:58:48;4.78;;;1.73;;
10811;SDS011;5458;51.496;7.334;2023-01-01T03:01:42;3.40;;;1.85;;
10811;SDS011;5458;51.496;7.334;2023-01-01T03:04:22;2.72;;;1.83;;
10811;SDS011;5458;51.496;7.334;2023-01-01T03:09:58;3.78;;;1.80;;
10811;SDS011;5458;51.496;7.334;2023-01-01T03:15:29;3.00;;;1.63;;
10811;SDS011;5458;51.496;7.334;2023-01-01T03:18:38;2.85;;;2.00;;
10811;SDS011;5458;51.496;7.334;2023-01-01T03:21:07;5.57;;;2.20;;
10811;SDS011;5458;51.496;7.334;2023-01-01T03:23:39;4.07;;;1.80;;
10811;SDS011;5458;51.496;7.334;2023-01-01T03:26:10;3.80;;;2.15;;
10811;SDS011;5458;51.496;7.334;2023-01-01T03:28:45;5.47;;;1.85;;
10811;SDS011;5458;51.496;7.334;2023-01-01T03:31:18;4.57;;;2.22;;
10811;SDS011;5458;51.496;7.334;2023-01-01T03:33:48;4.53;;;1.85;;
10811;SDS011;5458;51.496;7.334;2023-01-01T03:36:26;3.95;;;1.42;;
10811;SDS011;5458;51.496;7.334;2023-01-01T03:38:59;3.63;;;1.85;;
10811;SDS011;5458;51.496;7.334;2023-01-01T03:41:36;4.45;;;1.42;;
10811;SDS011;5458;51.496;7.334;2023-01-01T03:44:53;3.50;;;1.80;;
10811;SDS011;5458;51.496;7.334;2023-01-01T03:47:02;3.90;;;1.85;;
10811;SDS011;5458;51.496;7.334;2023-01-01T03:49:29;4.13;;;2.00;;
10811;SDS011;5458;51.496;7.334;2023-01-01T03:52:05;2.78;;;1.70;;
10811;SDS011;5458;51.496;7.334;2023-01-01T04:00:27;4.32;;;1.55;;
10811;SDS011;5458;51.496;7.334;2023-01-01T04:03:01;5.35;;;1.65;;
10811;SDS011;5458;51.496;7.334;2023-01-01T04:05:36;2.95;;;1.80;;
10811;SDS011;5458;51.496;7.334;2023-01-01T04:08:04;3.42;;;1.42;;
10811;SDS011;5458;51.496;7.334;2023-01-01T04:10:32;2.72;;;1.75;;
10811;SDS011;5458;51.496;7.334;2023-01-01T04:13:01;3.65;;;1.80;;
10811;SDS011;5458;51.496;7.334;2023-01-01T04:15:29;2.20;;;2.00;;
10811;SDS011;5458;51.496;7.334;2023-01-01T04:17:55;5.88;;;2.25;;
10811;SDS011;5458;51.496;7.334;2023-01-01T04:20:21;3.08;;;1.70;;
10811;SDS011;5458;51.496;7.334;2023-01-01T04:22:47;2.22;;;1.40;;
10811;SDS011;5458;51.496;7.334;2023-01-01T04:25:13;4.10;;;1.65;;
10811;SDS011;5458;51.496;7.334;2023-01-01T04:27:39;3.60;;;1.30;;
10811;SDS011;5458;51.496;7.334;2023-01-01T04:30:06;4.97;;;1.63;;
10811;SDS011;5458;51.496;7.334;2023-01-01T04:32:34;7.90;;;1.60;;
10811;SDS011;5458;51.496;7.334;2023-01-01T04:35:00;2.03;;;1.35;;
10811;SDS011;5458;51.496;7.334;2023-01-01T04:37:25;2.83;;;1.80;;
10811;SDS011;5458;51.496;7.334;2023-01-01T04:39:51;5.20;;;1.77;;
10811;SDS011;5458;51.496;7.334;2023-01-01T04:42:17;8.25;;;2.35;;
10811;SDS011;5458;51.496;7.334;2023-01-01T04:44:42;2.53;;;1.40;;
10811;SDS011;5458;51.496;7.334;2023-01-01T04:47:08;3.28;;;1.55;;
10811;SDS011;5458;51.496;7.334;2023-01-01T04:49:34;3.63;;;2.17;;
10811;SDS011;5458;51.496;7.334;2023-01-01T04:51:59;5.95;;;2.10;;
10811;SDS011;5458;51.496;7.334;2023-01-01T04:54:25;3.65;;;1.92;;
10811;SDS011;5458;51.496;7.334;2023-01-01T04:56:50;3.90;;;2.30;;
10811;SDS011;5458;51.496;7.334;2023-01-01T04:59:16;3.58;;;1.80;;
10811;SDS011;5458;51.496;7.334;2023-01-01T05:01:42;6.88;;;2.42;;
10811;SDS011;5458;51.496;7.334;2023-01-01T05:04:08;5.63;;;1.80;;
10811;SDS011;5458;51.496;7.334;2023-01-01T05:06:37;3.33;;;1.50;;
10811;SDS011;5458;51.496;7.334;2023-01-01T05:09:02;2.72;;;1.27;;
10811;SDS011;5458;51.496;7.334;2023-01-01T05:11:28;3.17;;;1.23;;
10811;SDS011;5458;51.496;7.334;2023-01-01T05:13:55;4.60;;;1.50;;
10811;SDS011;5458;51.496;7.334;2023-01-01T05:16:24;3.65;;;1.27;;
10811;SDS011;5458;51.496;7.334;2023-01-01T05:18:52;5.25;;;1.70;;
10811;SDS011;5458;51.496;7.334;2023-01-01T05:21:21;4.10;;;1.55;;
10811;SDS011;5458;51.496;7.334;2023-01-01T05:23:51;3.33;;;1.65;;
10811;SDS011;5458;51.496;7.334;2023-01-01T05:26:19;5.45;;;1.40;;
10811;SDS011;5458;51.496;7.334;2023-01-01T05:28:47;2.33;;;1.50;;
10811;SDS011;5458;51.496;7.334;2023-01-01T05:31:14;2.58;;;1.60;;
10811;SDS011;5458;51.496;7.334;2023-01-01T05:33:42;2.67;;;1.67;;
10811;SDS011;5458;51.496;7.334;2023-01-01T05:36:30;6.88;;;1.40;;
10811;SDS011;5458;51.496;7.334;2023-01-01T05:38:56;3.03;;;1.52;;
10811;SDS011;5458;51.496;7.334;2023-01-01T05:41:22;3.67;;;1.60;;
10811;SDS011;5458;51.496;7.334;2023-01-01T05:43:49;3.95;;;1.70;;
10811;SDS011;5458;51.496;7.334;2023-01-01T05:46:20;4.18;;;1.70;;
10811;SDS011;5458;51.496;7.334;2023-01-01T05:48:47;3.50;;;1.90;;
10811;SDS011;5458;51.496;7.334;2023-01-01T05:51:17;2.85;;;1.50;;
10811;SDS011;5458;51.496;7.334;2023-01-01T05:53:44;2.90;;;1.83;;
10811;SDS011;5458;51.496;7.334;2023-01-01T05:56:11;5.15;;;2.30;;
10811;SDS011;5458;51.496;7.334;2023-01-01T05:58:37;5.20;;;1.63;;
10811;SDS011;5458;51.496;7.334;2023-01-01T06:01:15;4.35;;;2.17;;
10811;SDS011;5458;51.496;7.334;2023-01-01T06:03:44;3.22;;;1.50;;
10811;SDS011;5458;51.496;7.334;2023-01-01T06:06:20;3.95;;;2.50;;
10811;SDS011;5458;51.496;7.334;2023-01-01T06:08:55;3.80;;;1.70;;
10811;SDS011;5458;51.496;7.334;2023-01-01T06:11:22;5.25;;;1.77;;
10811;SDS011;5458;51.496;7.334;2023-01-01T06:13:50;5.43;;;2.33;;
10811;SDS011;5458;51.496;7.334;2023-01-01T06:16:20;2.40;;;1.60;;
10811;SDS011;5458;51.496;7.334;2023-01-01T06:18:46;3.95;;;2.03;;
10811;SDS011;5458;51.496;7.334;2023-01-01T06:21:16;3.90;;;1.60;;
10811;SDS011;5458;51.496;7.334;2023-01-01T06:23:43;3.42;;;1.63;;
10811;SDS011;5458;51.496;7.334;2023-01-01T06:26:13;2.53;;;1.73;;
10811;SDS011;5458;51.496;7.334;2023-01-01T06:28:40;4.55;;;1.80;;
10811;SDS011;5458;51.496;7.334;2023-01-01T06:31:08;2.50;;;1.70;;
10811;SDS011;5458;51.496;7.334;2023-01-01T06:33:35;3.22;;;1.85;;
10811;SDS011;5458;51.496;7.334;2023-01-01T06:36:02;4.32;;;2.20;;
10811;SDS011;5458;51.496;7.334;2023-01-01T06:38:30;3.92;;;1.95;;
10811;SDS011;5458;51.496;7.334;2023-01-01T06:40:57;4.35;;;2.13;;
10811;SDS011;5458;51.496;7.334;2023-01-01T06:43:25;3.95;;;1.80;;
10811;SDS011;5458;51.496;7.334;2023-01-01T06:46:00;2.97;;;1.75;;
10811;SDS011;5458;51.496;7.334;2023-01-01T06:48:32;3.50;;;2.08;;
10811;SDS011;5458;51.496;7.334;2023-01-01T06:51:06;3.88;;;2.13;;
10811;SDS011;5458;51.496;7.334;2023-01-01T06:53:33;3.92;;;2.17;;
10811;SDS011;5458;51.496;7.334;2023-01-01T06:55:59;3.25;;;1.60;;
10811;SDS011;5458;51.496;7.334;2023-01-01T06:58:25;2.90;;;1.58;;
10811;SDS011;5458;51.496;7.334;2023-01-01T07:00:50;4.60;;;1.70;;
10811;SDS011;5458;51.496;7.334;2023-01-01T07:03:16;2.58;;;2.10;;
10811;SDS011;5458;51.496;7.334;2023-01-01T07:05:41;3.63;;;1.35;;
10811;SDS011;5458;51.496;7.334;2023-01-01T07:08:07;2.60;;;1.85;;
10811;SDS011;5458;51.496;7.334;2023-01-01T07:10:33;3.15;;;1.60;;
10811;SDS011;5458;51.496;7.334;2023-01-01T07:12:58;5.20;;;1.73;;
10811;SDS011;5458;51.496;7.334;2023-01-01T07:15:25;2.35;;;1.65;;
10811;SDS011;5458;51.496;7.334;2023-01-01T07:17:51;3.30;;;1.80;;
10811;SDS011;5458;51.496;7.334;2023-01-01T07:20:16;3.03;;;1.35;;
10811;SDS011;5458;51.496;7.334;2023-01-01T07:22:42;3.58;;;1.48;;
10811;SDS011;5458;51.496;7.334;2023-01-01T07:25:09;3.67;;;1.40;;
10811;SDS011;5458;51.496;7.334;2023-01-01T07:27:38;3.70;;;1.73;;
10811;SDS011;5458;51.496;7.334;2023-01-01T07:30:03;2.80;;;1.50;;
10811;SDS011;5458;51.496;7.334;2023-01-01T07:32:29;4.35;;;1.50;;
10811;SDS011;5458;51.496;7.334;2023-01-01T07:34:55;3.05;;;1.80;;
10811;SDS011;5458;51.496;7.334;2023-01-01T07:37:21;3.95;;;1.52;;
10811;SDS011;5458;51.496;7.334;2023-01-01T07:39:50;2.08;;;1.48;;
10811;SDS011;5458;51.496;7.334;2023-01-01T07:42:16;4.43;;;1.48;;
10811;SDS011;5458;51.496;7.334;2023-01-01T07:44:41;3.72;;;1.48;;
10811;SDS011;5458;51.496;7.334;2023-01-01T07:47:18;7.82;;;2.22;;
10811;SDS011;5458;51.496;7.334;2023-01-01T07:49:46;6.03;;;1.50;;
10811;SDS011;5458;51.496;7.334;2023-01-01T07:52:11;2.90;;;1.55;;
10811;SDS011;5458;51.496;7.334;2023-01-01T07:54:37;5.97;;;1.92;;
10811;SDS011;5458;51.496;7.334;2023-01-01T07:57:03;2.63;;;1.92;;
10811;SDS011;5458;51.496;7.334;2023-01-01T07:59:28;5.18;;;1.55;;
10811;SDS011;5458;51.496;7.334;2023-01-01T08:01:55;2.42;;;1.65;;
10811;SDS011;5458;51.496;7.334;2023-01-01T08:04:20;4.05;;;1.65;;
10811;SDS011;5458;51.496;7.334;2023-01-01T08:06:46;3.47;;;1.65;;
10811;SDS011;5458;51.496;7.334;2023-01-01T08:09:11;3.10;;;1.60;;
10811;SDS011;5458;51.496;7.334;2023-01-01T08:11:37;1.92;;;1.40;;
10811;SDS011;5458;51.496;7.334;2023-01-01T08:14:03;5.07;;;2.03;;
10811;SDS011;5458;51.496;7.334;2023-01-01T08:16:28;7.38;;;2.25;;
10811;SDS011;5458;51.496;7.334;2023-01-01T08:18:54;2.88;;;1.60;;
10811;SDS011;5458;51.496;7.334;2023-01-01T08:21:19;5.07;;;1.70;;
10811;SDS011;5458;51.496;7.334;2023-01-01T08:23:45;5.63;;;1.85;;
10811;SDS011;5458;51.496;7.334;2023-01-01T08:26:14;4.18;;;1.95;;
10811;SDS011;5458;51.496;7.334;2023-01-01T08:28:40;7.95;;;2.00;;
10811;SDS011;5458;51.496;7.334;2023-01-01T08:31:06;3.13;;;2.00;;
10811;SDS011;5458;51.496;7.334;2023-01-01T08:33:32;5.03;;;1.90;;
10811;SDS011;5458;51.496;7.334;2023-01-01T08:35:59;3.83;;;2.00;;
10811;SDS011;5458;51.496;7.334;2023-01-01T08:38:25;3.83;;;2.10;;
10811;SDS011;5458;51.496;7.334;2023-01-01T08:40:51;5.55;;;2.22;;
10811;SDS011;5458;51.496;7.334;2023-01-01T08:43:16;3.78;;;2.20;;
10811;SDS011;5458;51.496;7.334;2023-01-01T08:45:42;3.47;;;1.73;;
10811;SDS011;5458;51.496;7.334;2023-01-01T08:48:09;2.47;;;1.65;;
10811;SDS011;5458;51.496;7.334;2023-01-01T08:50:34;2.85;;;2.13;;
10811;SDS011;5458;51.496;7.334;2023-01-01T08:53:00;8.20;;;2.13;;
10811;SDS011;5458;51.496;7.334;2023-01-01T08:55:26;3.10;;;1.70;;
10811;SDS011;5458;51.496;7.334;2023-01-01T08:57:52;7.45;;;2.50;;
10811;SDS011;5458;51.496;7.334;2023-01-01T09:00:17;3.22;;;1.77;;
10811;SDS011;5458;51.496;7.334;2023-01-01T09:02:43;4.35;;;1.98;;
10811;SDS011;5458;51.496;7.334;2023-01-01T09:05:08;4.10;;;2.05;;
10811;SDS011;5458;51.496;7.334;2023-01-01T09:07:34;3.38;;;1.98;;
10811;SDS011;5458;51.496;7.334;2023-01-01T09:10:00;3.08;;;1.80;;
10811;SDS011;5458;51.496;7.334;2023-01-01T09:12:25;2.97;;;2.05;;
10811;SDS011;5458;51.496;7.334;2023-01-01T09:14:51;3.78;;;1.65;;
10811;SDS011;5458;51.496;7.334;2023-01-01T09:17:16;5.00;;;2.05;;
10811;SDS011;5458;51.496;7.334;2023-01-01T09:19:42;3.72;;;2.15;;
10811;SDS011;5458;51.496;7.334;2023-01-01T09:22:11;3.25;;;1.83;;
10811;SDS011;5458;51.496;7.334;2023-01-01T09:24:37;4.93;;;2.75;;
10811;SDS011;5458;51.496;7.334;2023-01-01T09:27:03;7.20;;;2.20;;
10811;SDS011;5458;51.496;7.334;2023-01-01T09:29:29;2.40;;;1.48;;
10811;SDS011;5458;51.496;7.334;2023-01-01T09:31:55;3.28;;;1.95;;
10811;SDS011;5458;51.496;7.334;2023-01-01T09:34:21;5.65;;;1.88;;
10811;SDS011;5458;51.496;7.334;2023-01-01T09:36:46;4.25;;;1.80;;
10811;SDS011;5458;51.496;7.334;2023-01-01T09:39:13;4.93;;;1.88;;
10811;SDS011;5458;51.496;7.334;2023-01-01T09:47:29;3.45;;;1.65;;
10811;SDS011;5458;51.496;7.334;2023-01-01T09:50:05;4.97;;;2.83;;
10811;SDS011;5458;51.496;7.334;2023-01-01T09:52:44;4.18;;;1.67;;
10811;SDS011;5458;51.496;7.334;2023-01-01T09:55:27;6.35;;;2.28;;
10811;SDS011;5458;51.496;7.334;2023-01-01T09:58:09;3.88;;;1.63;;
10811;SDS011;5458;51.496;7.334;2023-01-01T10:00:35;4.88;;;1.70;;
10811;SDS011;5458;51.496;7.334;2023-01-01T10:14:00;4.40;;;1.92;;
10811;SDS011;5458;51.496;7.334;2023-01-01T10:18:57;3.70;;;1.70;;
10811;SDS011;5458;51.496;7.334;2023-01-01T10:21:43;4.93;;;1.73;;
10811;SDS011;5458;51.496;7.334;2023-01-01T10:26:36;6.63;;;1.73;;
10811;SDS011;5458;51.496;7.334;2023-01-01T10:29:14;6.32;;;1.80;;
10811;SDS011;5458;51.496;7.334;2023-01-01T10:31:46;5.50;;;2.45;;
10811;SDS011;5458;51.496;7.334;2023-01-01T10:36:50;7.13;;;3.38;;
10811;SDS011;5458;51.496;7.334;2023-01-01T10:39:17;4.22;;;2.05;;
10811;SDS011;5458;51.496;7.334;2023-01-01T10:41:43;5.10;;;1.77;;
10811;SDS011;5458;51.496;7.334;2023-01-01T10:44:17;5.20;;;2.15;;
10811;SDS011;5458;51.496;7.334;2023-01-01T10:46:55;3.58;;;1.40;;
10811;SDS011;5458;51.496;7.334;2023-01-01T10:49:21;4.68;;;2.10;;
10811;SDS011;5458;51.496;7.334;2023-01-01T10:51:48;4.32;;;1.80;;
10811;SDS011;5458;51.496;7.334;2023-01-01T10:54:32;3.50;;;1.73;;
10811;SDS011;5458;51.496;7.334;2023-01-01T10:57:13;5.35;;;2.08;;
10811;SDS011;5458;51.496;7.334;2023-01-01T10:59:42;2.92;;;1.70;;
10811;SDS011;5458;51.496;7.334;2023-01-01T11:02:16;5.97;;;1.92;;
10811;SDS011;5458;51.496;7.334;2023-01-01T11:04:44;4.57;;;1.83;;
10811;SDS011;5458;51.496;7.334;2023-01-01T11:07:17;3.03;;;1.80;;
10811;SDS011;5458;51.496;7.334;2023-01-01T11:09:48;4.38;;;1.73;;
10811;SDS011;5458;51.496;7.334;2023-01-01T11:12:18;9.45;;;2.33;;
10811;SDS011;5458;51.496;7.334;2023-01-01T11:17:20;3.72;;;1.52;;
10811;SDS011;5458;51.496;7.334;2023-01-01T11:19:48;3.40;;;1.63;;
10811;SDS011;5458;51.496;7.334;2023-01-01T11:24:59;3.50;;;1.65;;
10811;SDS011;5458;51.496;7.334;2023-01-01T11:27:25;4.15;;;2.30;;
10811;SDS011;5458;51.496;7.334;2023-01-01T11:29:51;4.40;;;1.92;;
10811;SDS011;5458;51.496;7.334;2023-01-01T11:33:02;3.30;;;1.98;;
10811;SDS011;5458;51.496;7.334;2023-01-01T11:35:30;5.30;;;2.65;;
10811;SDS011;5458;51.496;7.334;2023-01-01T11:37:57;6.22;;;2.22;;
10811;SDS011;5458;51.496;7.334;2023-01-01T11:41:06;4.32;;;1.83;;
10811;SDS011;5458;51.496;7.334;2023-01-01T11:43:15;6.65;;;2.13;;
10811;SDS011;5458;51.496;7.334;2023-01-01T11:45:45;4.00;;;1.75;;
10811;SDS011;5458;51.496;7.334;2023-01-01T11:48:16;4.43;;;1.77;;
10811;SDS011;5458;51.496;7.334;2023-01-01T11:50:54;8.88;;;2.55;;
10811;SDS011;5458;51.496;7.334;2023-01-01T11:53:32;4.22;;;1.85;;
10811;SDS011;5458;51.496;7.334;2023-01-01T12:01:12;4.85;;;1.80;;
10811;SDS011;5458;51.496;7.334;2023-01-01T12:04:07;6.22;;;1.88;;
10811;SDS011;5458;51.496;7.334;2023-01-01T12:12:12;5.55;;;2.05;;
10811;SDS011;5458;51.496;7.334;2023-01-01T12:15:46;3.60;;;1.77;;
10811;SDS011;5458;51.496;7.334;2023-01-01T12:17:46;5.55;;;2.80;;
10811;SDS011;5458;51.496;7.334;2023-01-01T12:20:27;4.35;;;1.90;;
10811;SDS011;5458;51.496;7.334;2023-01-01T12:22:56;4.32;;;2.17;;
10811;SDS011;5458;51.496;7.334;2023-01-01T12:25:23;4.38;;;1.63;;
10811;SDS011;5458;51.496;7.334;2023-01-01T12:41:47;5.03;;;2.28;;
10811;SDS011;5458;51.496;7.334;2023-01-01T12:58:10;5.65;;;1.80;;
10811;SDS011;5458;51.496;7.334;2023-01-01T13:00:42;4.05;;;1.67;;
10811;SDS011;5458;51.496;7.334;2023-01-01T13:03:19;4.63;;;1.58;;
10811;SDS011;5458;51.496;7.334;2023-01-01T13:05:52;4.60;;;1.50;;
10811;SDS011;5458;51.496;7.334;2023-01-01T13:08:20;8.20;;;2.38;;
10811;SDS011;5458;51.496;7.334;2023-01-01T13:10:46;7.78;;;1.98;;
10811;SDS011;5458;51.496;7.334;2023-01-01T13:13:14;4.95;;;1.75;;
10811;SDS011;5458;51.496;7.334;2023-01-01T13:20:43;7.43;;;1.92;;
10811;SDS011;5458;51.496;7.334;2023-01-01T13:59:03;4.18;;;2.20;;
10811;SDS011;5458;51.496;7.334;2023-01-01T14:01:35;10.25;;;1.98;;
10811;SDS011;5458;51.496;7.334;2023-01-01T14:04:11;4.97;;;2.03;;
10811;SDS011;5458;51.496;7.334;2023-01-01T14:06:49;3.45;;;1.67;;
10811;SDS011;5458;51.496;7.334;2023-01-01T14:09:18;7.15;;;2.00;;
10811;SDS011;5458;51.496;7.334;2023-01-01T14:11:44;4.72;;;1.85;;
10811;SDS011;5458;51.496;7.334;2023-01-01T14:14:26;3.10;;;1.63;;
10811;SDS011;5458;51.496;7.334;2023-01-01T14:16:53;4.07;;;1.90;;
10811;SDS011;5458;51.496;7.334;2023-01-01T14:19:22;6.13;;;1.83;;
10811;SDS011;5458;51.496;7.334;2023-01-01T14:21:49;5.70;;;1.42;;
10811;SDS011;5458;51.496;7.334;2023-01-01T14:24:16;4.82;;;2.10;;
10811;SDS011;5458;51.496;7.334;2023-01-01T14:26:44;7.07;;;1.98;;
10811;SDS011;5458;51.496;7.334;2023-01-01T14:29:16;5.38;;;1.90;;
10811;SDS011;5458;51.496;7.334;2023-01-01T14:31:49;6.47;;;2.00;;
10811;SDS011;5458;51.496;7.334;2023-01-01T14:34:26;5.00;;;1.85;;
10811;SDS011;5458;51.496;7.334;2023-01-01T14:36:56;5.93;;;2.35;;
10811;SDS011;5458;51.496;7.334;2023-01-01T14:41:50;5.03;;;2.10;;
10811;SDS011;5458;51.496;7.334;2023-01-01T14:44:18;5.82;;;2.33;;
10811;SDS011;5458;51.496;7.334;2023-01-01T14:46:47;5.05;;;2.13;;
10811;SDS011;5458;51.496;7.334;2023-01-01T14:49:15;4.60;;;2.40;;
10811;SDS011;5458;51.496;7.334;2023-01-01T14:51:49;4.78;;;2.10;;
10811;SDS011;5458;51.496;7.334;2023-01-01T14:54:21;6.10;;;2.05;;
10811;SDS011;5458;51.496;7.334;2023-01-01T14:56:52;5.18;;;2.17;;
10811;SDS011;5458;51.496;7.334;2023-01-01T15:02:00;4.35;;;2.40;;
10811;SDS011;5458;51.496;7.334;2023-01-01T15:04:26;7.60;;;2.28;;
10811;SDS011;5458;51.496;7.334;2023-01-01T15:06:53;4.57;;;2.17;;
10811;SDS011;5458;51.496;7.334;2023-01-01T15:09:23;4.72;;;2.20;;
10811;SDS011;5458;51.496;7.334;2023-01-01T15:11:52;6.88;;;2.50;;
10811;SDS011;5458;51.496;7.334;2023-01-01T15:17:07;4.28;;;2.50;;
10811;SDS011;5458;51.496;7.334;2023-01-01T15:19:34;6.78;;;2.13;;
10811;SDS011;5458;51.496;7.334;2023-01-01T15:22:07;3.92;;;2.15;;
10811;SDS011;5458;51.496;7.334;2023-01-01T15:24:39;4.35;;;2.45;;
10811;SDS011;5458;51.496;7.334;2023-01-01T15:27:13;4.53;;;2.42;;
10811;SDS011;5458;51.496;7.334;2023-01-01T15:30:01;4.85;;;2.47;;
10811;SDS011;5458;51.496;7.334;2023-01-01T15:32:32;4.68;;;2.10;;
10811;SDS011;5458;51.496;7.334;2023-01-01T15:35:01;7.07;;;2.63;;
10811;SDS011;5458;51.496;7.334;2023-01-01T15:37:45;3.92;;;2.33;;
10811;SDS011;5458;51.496;7.334;2023-01-01T15:42:46;4.25;;;2.40;;
10811;SDS011;5458;51.496;7.334;2023-01-01T15:45:36;6.35;;;2.28;;
10811;SDS011;5458;51.496;7.334;2023-01-01T15:50:29;4.57;;;2.40;;
10811;SDS011;5458;51.496;7.334;2023-01-01T15:53:02;5.28;;;2.30;;
10811;SDS011;5458;51.496;7.334;2023-01-01T15:55:34;7.18;;;2.28;;
10811;SDS011;5458;51.496;7.334;2023-01-01T15:58:12;5.85;;;2.20;;
10811;SDS011;5458;51.496;7.334;2023-01-01T16:00:50;3.97;;;2.42;;
10811;SDS011;5458;51.496;7.334;2023-01-01T16:03:20;6.63;;;2.50;;
10811;SDS011;5458;51.496;7.334;2023-01-01T16:05:51;6.25;;;2.25;;
10811;SDS011;5458;51.496;7.334;2023-01-01T16:08:19;6.60;;;2.22;;
10811;SDS011;5458;51.496;7.334;2023-01-01T16:10:46;5.55;;;2.42;;
10811;SDS011;5458;51.496;7.334;2023-01-01T16:13:12;4.65;;;2.00;;
10811;SDS011;5458;51.496;7.334;2023-01-01T16:15:47;6.13;;;1.83;;
10811;SDS011;5458;51.496;7.334;2023-01-01T16:18:15;3.33;;;2.00;;
10811;SDS011;5458;51.496;7.334;2023-01-01T16:20:42;5.07;;;1.83;;
10811;SDS011;5458;51.496;7.334;2023-01-01T16:23:09;4.20;;;2.13;;
10811;SDS011;5458;51.496;7.334;2023-01-01T16:25:34;6.00;;;1.90;;
10811;SDS011;5458;51.496;7.334;2023-01-01T16:28:00;4.78;;;2.10;;
10811;SDS011;5458;51.496;7.334;2023-01-01T16:30:28;6.25;;;2.40;;
10811;SDS011;5458;51.496;7.334;2023-01-01T16:32:53;2.58;;;2.38;;
10811;SDS011;5458;51.496;7.334;2023-01-01T16:35:19;6.45;;;2.45;;
10811;SDS011;5458;51.496;7.334;2023-01-01T16:37:45;3.42;;;1.70;;
10811;SDS011;5458;51.496;7.334;2023-01-01T16:40:11;5.28;;;2.92;;
10811;SDS011;5458;51.496;7.334;2023-01-01T16:42:36;3.63;;;2.00;;
10811;SDS011;5458;51.496;7.334;2023-01-01T16:45:03;2.85;;;1.80;;
10811;SDS011;5458;51.496;7.334;2023-01-01T16:47:29;4.55;;;2.53;;
10811;SDS011;5458;51.496;7.334;2023-01-01T16:49:55;6.07;;;2.70;;
10811;SDS011;5458;51.496;7.334;2023-01-01T16:52:20;5.35;;;2.72;;
10811;SDS011;5458;51.496;7.334;2023-01-01T16:54:46;6.88;;;2.25;;
10811;SDS011;5458;51.496;7.334;2023-01-01T16:57:12;3.90;;;2.45;;
10811;SDS011;5458;51.496;7.334;2023-01-01T16:59:37;6.72;;;2.63;;
10811;SDS011;5458;51.496;7.334;2023-01-01T17:02:03;4.07;;;2.03;;
10811;SDS011;5458;51.496;7.334;2023-01-01T17:04:29;4.22;;;2.05;;
10811;SDS011;5458;51.496;7.334;2023-01-01T17:06:55;3.30;;;1.80;;
10811;SDS011;5458;51.496;7.334;2023-01-01T17:09:21;4.78;;;1.92;;
10811;SDS011;5458;51.496;7.334;2023-01-01T17:11:47;4.57;;;1.75;;
10811;SDS011;5458;51.496;7.334;2023-01-01T17:14:13;6.38;;;1.60;;
10811;SDS011;5458;51.496;7.334;2023-01-01T17:16:38;5.70;;;2.33;;
10811;SDS011;5458;51.496;7.334;2023-01-01T17:19:04;3.85;;;2.25;;
10811;SDS011;5458;51.496;7.334;2023-01-01T17:21:29;4.38;;;2.30;;
10811;SDS011;5458;51.496;7.334;2023-01-01T17:23:55;3.97;;;2.20;;
10811;SDS011;5458;51.496;7.334;2023-01-01T17:26:22;3.72;;;2.30;;
10811;SDS011;5458;51.496;7.334;2023-01-01T17:28:49;7.13;;;2.95;;
10811;SDS011;5458;51.496;7.334;2023-01-01T17:31:16;5.68;;;2.78;;
10811;SDS011;5458;51.496;7.334;2023-01-01T17:33:49;4.65;;;3.05;;
10811;SDS011;5458;51.496;7.334;2023-01-01T17:36:15;4.65;;;2.72;;
10811;SDS011;5458;51.496;7.334;2023-01-01T17:38:41;4.78;;;2.72;;
10811;SDS011;5458;51.496;7.334;2023-01-01T17:41:09;3.65;;;2.63;;
10811;SDS011;5458;51.496;7.334;2023-01-01T17:43:37;3.78;;;3.00;;